Etusivu
METAR-TAF:

METAR-TAF

Lentoasemat :

Öljynporauslautta

Goeree Le, Alankomaat

Leveyspiiri: 51-55-33N, Pituuspiiri: 3-40-12E, korkeus merenpinnasta: 19 m

Tämänhetkinen sää

Tämä raportti tehtiin 34 minuuttia sitten, kello 01.55 UTC
Tuuli 8 kn luoteesta
Lämpötila 15°C
Kosteus 72%
Ilmanpaine 1019 hPa
Näkyvyys 10 km tai enemmän

METAR: EHSC 160155Z AUTO 32008KT 9999 ///////// 15/10 Q1019 W18/H11

Aika: 04:29 (02:29 UTC)


TAF: puuttuu

Säähavainnot ja -ennusteet yli 4000 lentoasemalta (METAR- ja TAF-raportit).

Käytössä olevat sääasemat on merkitty karttaan keltaisilla ja punaisilla pisteillä.

Aseta hiiri pisteen päälle nähdäksesi sääaseman nimen.

Klikkaa sitten nähdäksesi säähavainnot ja -ennusteet.

Kartan vaihtaminen: klikkaa mustalla rastilla varustettuja vihreitä pisteitä, niin voit zoomata sisään; viivalla varustettua vihreää pistettä, niin voit zoomata ulos tai vihreitä nuolia, niin pääset viereisille kartoille.


METAR-TAF: